Arrowhead Farms, California
Current Conditions -  °F | °C
As of 4:50 PM on Sunday 23 Nov 2014 (Local Time) from KSBD Reporting Station
Scattered Clouds Scattered Clouds  
Wind Chill: 66°   Ceiling: Unl
Heat Index: 66°   Visibility: 10mi
Dew Point: 10°   Wind: 8mph
Humidity: 11%   Direction: 130°SE
Pressure: 30.12"   Gusts: NA
Location:  34.2759°N, 117.303°W
Report Text: KSBD 240050Z 13007KT 10SM SCT150 19/M12 A3012
Loading
Personal Weather Stations






























Interactive Weather Map New forecast layout! Learn more

10-Day Weather Forecast

Advertisements
Track Severe Weather on mobile